Ужгород

СКИДКИ НА СМАРТФОНЫ!

Карта отелей и гостиниц, располагающихся рядом с аэропортом Ужгород :

Ужгород Закарпатская область 48° 38' 4.02" N, 22° 15' 47.2788" E
Код аэродрома ИКАО
UKLU
Код аэродрома RU
УКЛУ
Координаты
N48.63445° E022.26313°
Превышение над уровнем моря
117
Основная полоса
10/28
Курс магнитный
099/279
Длина основной ВПП
2038
Ширина основной ВПП
28
Покрытие основной ВПП
Твёрдое
Освещение ВПП
По запросу
Тип: 
Аэродром
Класс аэродрома: 
Международный
Принадлежность: 
ГА
Статус: 
Действующий
Страна: 
Украина
Регион: 
Закарпатская область
Дополнительная информация: 
Оператор: нет данных. Уникален тем, что ВС взлетают и заходят на посадку через воздушное пространство Словакии (гос. граница на удалении 100 м от торца ИВПП-10).

Скидки на навигаторы!

Найти трансфер

С помощью этой формы Вы можете найти трансфер из аэропорта Ужгород в город, аэропорт или вокзал:

Погода в аэропортах:

Авиационная погода в Нижневартовске

Регион: 
Погода METAR: 
USNN 091530Z 34001MPS 1300 1100NE R21/1200N HZ FEW020CB 22/20 Q1015 R21/0///65 NOSIG RMK QFE756
Время наблюдения
2022-08-09T15:30:00Z
Температура C
22.0
Точка росы
20.0
Направление ветра
340
Скорость ветра (узлы)
2
Метео видимость
0.81
Облачность
FEW
Нижняя граница облачности (футы)
2000
Явления погоды
HZ
Условия полета
LIFR
Аэропорт подробнее: 
FEW – незначительная облачность;
HZ – мгла (видимость менее 10 км);

Авиационная погода в Череповце

Регион: 
Погода METAR: 
ULWC 091530Z 04003MPS 9999 TS SCT026CB 19/12 Q1023 R21/010063 NOSIG RMK QFE757/1010
Время наблюдения
2022-08-09T15:30:00Z
Температура C
19.0
Точка росы
12.0
Направление ветра
40
Скорость ветра (узлы)
6
Метео видимость
6.21
Облачность
SCT
Нижняя граница облачности (футы)
2600
Явления погоды
TS
Условия полета
VFR
Аэропорт подробнее: 
SCT – разбросанная отдельная облачность;

Авиационная погода в Ярославле

Регион: 
Погода METAR: 
UUDL 091530Z 00000MPS 9999 -SHRA BKN036CB 17/15 Q1022 R23/010060 NOSIG RMK QFE758
Время наблюдения
2022-08-09T15:30:00Z
Температура C
17.0
Точка росы
15.0
Направление ветра
0
Скорость ветра (узлы)
0
Метео видимость
6.21
Облачность
BKN
Нижняя граница облачности (футы)
3600
Явления погоды
-SHRA
Условия полета
VFR
Аэропорт подробнее: 
BKN – значительная (рассеянная, разорванная) облачность;
-SHRA - слабый ливневой дождь;

Авиационная погода в аэропорту Семей

Регион: 
Погода METAR: 
UASS 091130Z 31004MPS 280V350 9999 -SHRA SCT040CB 24/14 Q1005 NOSIG RMK QFE735/0981
Время наблюдения
2022-08-09T11:30:00Z
Температура C
24.0
Точка росы
14.0
Направление ветра
310
Скорость ветра (узлы)
8
Метео видимость
6.21
Облачность
SCT
Нижняя граница облачности (футы)
4000
Явления погоды
-SHRA
Условия полета
VFR
Аэропорт подробнее: 
SCT – разбросанная отдельная облачность;
-SHRA - слабый ливневой дождь;